Time;durP1;ratioP1;P1;durP2;ratioP2;P2;SDS_P1;SDS_P2;PMS_P1;PMS_P2;Temp;Humidity;BMP_temperature;BMP_pressure;BME280_temperature;BME280_humidity;BME280_pressure;Samples;Min_cycle;Max_cycle;Signal;HPM_P1;HPM_P2
2023/04/16 00:02:13;;;;;;;4.95;1.63;;;;;;;11.40;47.30;93406.59;5063573;28;20105;-73
2023/04/16 00:04:39;;;;;;;8.35;1.83;;;;;;;11.43;47.66;93408.59;5063111;28;20028;-73
2023/04/16 00:07:04;;;;;;;7.72;1.90;;;;;;;11.40;47.31;93403.91;5063447;28;20098;-72
2023/04/16 00:09:30;;;;;;;5.18;1.33;;;;;;;11.38;47.28;93409.56;5063272;28;20032;-73
2023/04/16 00:11:55;;;;;;;2.33;1.27;;;;;;;11.39;47.61;93397.78;5063398;28;20020;-73
2023/04/16 00:14:21;;;;;;;3.00;1.10;;;;;;;11.36;47.51;93405.69;5063391;28;20024;-73
2023/04/16 00:16:46;;;;;;;2.92;1.30;;;;;;;11.37;47.48;93405.34;5063483;28;20020;-73
2023/04/16 00:19:12;;;;;;;2.35;1.02;;;;;;;11.36;47.85;93401.13;5063467;28;20060;-73
2023/04/16 00:21:37;;;;;;;4.68;1.23;;;;;;;11.38;48.08;93401.56;5063088;28;20044;-73
2023/04/16 00:24:02;;;;;;;2.30;1.08;;;;;;;11.36;48.23;93395.78;5063307;28;20052;-73
2023/04/16 00:26:28;;;;;;;3.72;1.42;;;;;;;11.35;48.27;93401.44;5063198;28;20029;-73
2023/04/16 00:28:53;;;;;;;5.82;1.13;;;;;;;11.33;48.05;93392.97;5063210;28;20029;-72
2023/04/16 00:31:29;;;;;;;2.50;1.08;;;;;;;11.33;48.38;93398.31;5063080;28;20099;-73
2023/04/16 00:33:55;;;;;;;4.55;1.25;;;;;;;11.34;48.19;93390.00;5063201;28;20017;-73
2023/04/16 00:36:22;;;;;;;4.15;1.08;;;;;;;11.33;48.29;93392.97;5062962;28;20021;-73
2023/04/16 00:38:47;;;;;;;6.03;1.88;;;;;;;11.31;48.90;93395.97;5063041;28;20021;-73
2023/04/16 00:41:12;;;;;;;6.57;1.55;;;;;;;11.18;49.29;93399.72;5063185;28;20028;-73
2023/04/16 00:43:38;;;;;;;4.10;1.58;;;;;;;11.02;49.62;93402.97;5062884;28;20330;-73
2023/04/16 00:46:05;;;;;;;4.25;1.40;;;;;;;10.94;49.88;93397.72;5062891;28;20078;-73
2023/04/16 00:48:31;;;;;;;3.33;1.40;;;;;;;10.87;49.93;93403.59;5062740;28;20021;-73
2023/04/16 00:50:59;;;;;;;5.22;1.45;;;;;;;10.79;50.04;93391.09;5062930;28;20028;-73
2023/04/16 00:53:24;;;;;;;2.95;1.30;;;;;;;10.75;50.21;93390.19;5062792;28;20087;-73
2023/04/16 00:55:50;;;;;;;4.95;1.25;;;;;;;10.76;50.51;93397.06;5062741;28;20311;-73
2023/04/16 00:58:17;;;;;;;4.45;1.10;;;;;;;10.73;50.03;93392.41;5062809;28;20033;-73
2023/04/16 01:00:42;;;;;;;2.63;1.10;;;;;;;10.71;49.70;93395.38;5062899;28;20025;-73
2023/04/16 01:03:08;;;;;;;2.22;1.23;;;;;;;10.71;49.49;93405.28;5062673;28;20028;-73
2023/04/16 01:05:35;;;;;;;4.63;1.20;;;;;;;10.74;50.11;93393.94;5062586;28;20247;-73
2023/04/16 01:08:00;;;;;;;4.05;1.10;;;;;;;10.71;50.46;93392.72;5062700;28;20025;-73
2023/04/16 01:10:26;;;;;;;8.13;2.80;;;;;;;10.69;50.99;93402.16;5062849;28;20044;-73
2023/04/16 01:12:51;;;;;;;12.60;2.95;;;;;;;10.64;51.05;93400.44;5062792;28;20021;-73
2023/04/16 01:15:17;;;;;;;4.82;2.05;;;;;;;10.60;51.27;93395.00;5062446;28;20075;-73
2023/04/16 01:17:47;;;;;;;3.65;1.75;;;;;;;10.54;50.35;93390.97;5065126;28;20025;-73
2023/04/16 01:20:13;;;;;;;3.55;1.70;;;;;;;10.51;50.74;93396.16;5066922;28;20027;-73
2023/04/16 01:22:38;;;;;;;3.53;1.60;;;;;;;10.47;51.18;93397.91;5066708;28;20049;-73
2023/04/16 01:25:04;;;;;;;4.70;1.65;;;;;;;10.45;51.36;93398.22;5066516;28;20048;-73
2023/04/16 01:27:31;;;;;;;4.57;1.70;;;;;;;10.37;51.26;93393.72;5066305;28;20319;-73
2023/04/16 01:29:56;;;;;;;6.65;2.33;;;;;;;10.33;51.49;93390.91;5066536;28;20029;-73
2023/04/16 01:32:22;;;;;;;4.45;1.70;;;;;;;10.31;51.58;93389.69;5066564;28;20048;-73
2023/04/16 01:34:47;;;;;;;10.05;2.17;;;;;;;10.27;52.48;93392.16;5066330;28;20084;-73
2023/04/16 01:37:13;;;;;;;5.50;1.90;;;;;;;10.24;52.83;93388.28;5066528;28;20317;-73
2023/04/16 01:39:38;;;;;;;6.18;2.28;;;;;;;10.20;53.26;93387.34;5066148;28;20024;-73
2023/04/16 01:42:04;;;;;;;8.45;2.20;;;;;;;10.13;53.36;93380.97;5066234;28;20211;-73
2023/04/16 01:44:29;;;;;;;4.88;1.88;;;;;;;10.08;53.71;93379.28;5066215;28;20028;-72
2023/04/16 01:46:55;;;;;;;7.95;1.85;;;;;;;10.02;54.06;93370.69;5066216;28;20040;-73
2023/04/16 01:49:21;;;;;;;4.95;2.30;;;;;;;9.98;53.92;93361.00;5066005;28;20219;-73
2023/04/16 01:51:47;;;;;;;4.10;2.00;;;;;;;9.92;54.29;93368.38;5066169;28;20223;-73
2023/04/16 01:54:12;;;;;;;6.10;1.73;;;;;;;9.90;54.70;93362.59;5066214;28;20029;-72
2023/04/16 01:56:38;;;;;;;4.00;1.65;;;;;;;9.90;55.18;93362.59;5065739;28;20056;-73
2023/04/16 01:59:03;;;;;;;4.28;2.00;;;;;;;9.89;55.20;93360.25;5065836;28;20017;-72
2023/04/16 02:01:29;;;;;;;9.75;1.90;;;;;;;9.84;55.36;93364.66;5065699;28;20023;-74
2023/04/16 02:03:56;;;;;;;3.70;1.55;;;;;;;9.78;55.24;93365.94;5065931;28;20330;-72
2023/04/16 02:06:21;;;;;;;3.25;1.45;;;;;;;9.77;55.52;93366.25;5065747;28;20017;-73
2023/04/16 02:08:47;;;;;;;4.03;1.77;;;;;;;9.75;55.50;93365.78;5064388;28;20028;-72
2023/04/16 02:11:12;;;;;;;7.70;2.17;;;;;;;9.76;55.36;93372.69;5065704;28;20100;-72
2023/04/16 02:13:38;;;;;;;5.28;2.03;;;;;;;9.76;55.48;93375.34;5065441;28;20028;-74
2023/04/16 02:16:03;;;;;;;4.50;2.03;;;;;;;9.76;55.29;93372.69;5065631;28;20029;-73
2023/04/16 02:18:29;;;;;;;4.63;1.75;;;;;;;9.75;55.02;93373.75;5065484;28;20024;-72
2023/04/16 02:20:58;;;;;;;7.60;2.75;;;;;;;9.74;54.91;93375.66;5065455;28;20028;-72
2023/04/16 02:23:23;;;;;;;5.55;2.58;;;;;;;9.75;54.94;93376.44;5065610;28;20032;-72
2023/04/16 02:25:49;;;;;;;8.75;2.50;;;;;;;9.73;55.36;93374.09;5065441;28;20029;-72
2023/04/16 02:28:15;;;;;;;6.93;3.22;;;;;;;9.73;55.56;93363.47;5064986;28;20257;-72
2023/04/16 02:30:41;;;;;;;7.75;3.05;;;;;;;9.74;55.59;93364.22;5064163;28;20032;-72
2023/04/16 02:33:08;;;;;;;6.43;2.70;;;;;;;9.75;55.63;93360.47;5065516;28;20366;-73
2023/04/16 02:35:34;;;;;;;5.43;2.53;;;;;;;9.78;55.57;93355.28;5065123;28;20028;-74
2023/04/16 02:38:00;;;;;;;7.43;2.10;;;;;;;9.79;55.58;93358.72;5065300;28;20227;-73
2023/04/16 02:40:26;;;;;;;6.80;2.42;;;;;;;9.87;55.57;93352.59;5065146;28;20028;-72
2023/04/16 02:42:52;;;;;;;7.45;2.55;;;;;;;9.88;55.58;93364.03;5065062;28;20099;-72
2023/04/16 02:45:18;;;;;;;5.22;2.45;;;;;;;9.88;55.49;93358.69;5064963;28;20025;-72
2023/04/16 02:47:44;;;;;;;8.95;2.28;;;;;;;9.92;55.58;93351.63;5064967;28;20071;-72
2023/04/16 02:50:10;;;;;;;7.72;2.85;;;;;;;9.94;55.38;93352.88;5065018;28;20029;-76
2023/04/16 02:52:35;;;;;;;9.10;3.30;;;;;;;9.96;55.69;93352.56;5064860;28;20031;-72
2023/04/16 02:55:01;;;;;;;7.30;2.40;;;;;;;9.95;55.74;93343.00;5064908;28;20283;-74
2023/04/16 02:57:27;;;;;;;4.22;2.35;;;;;;;9.96;55.63;93340.00;5064648;28;20151;-72
2023/04/16 02:59:52;;;;;;;4.38;2.30;;;;;;;9.95;55.96;93343.00;5064572;28;20021;-72
2023/04/16 03:02:18;;;;;;;7.45;2.33;;;;;;;9.96;56.09;93345.34;5064828;28;20059;-73
2023/04/16 03:04:43;;;;;;;4.68;2.28;;;;;;;9.94;56.14;93339.56;5064885;28;20033;-72
2023/04/16 03:07:10;;;;;;;10.70;2.33;;;;;;;9.92;55.92;93344.41;5064664;28;20028;-73
2023/04/16 03:09:35;;;;;;;6.05;2.90;;;;;;;9.90;56.29;93343.19;5064338;28;20033;-73
2023/04/16 03:12:01;;;;;;;9.40;3.50;;;;;;;9.90;56.28;93340.53;5064518;28;20025;-73
2023/04/16 03:14:26;;;;;;;8.13;3.92;;;;;;;9.88;56.01;93353.38;5064589;28;20024;-73
2023/04/16 03:16:52;;;;;;;13.65;2.85;;;;;;;9.83;56.07;93355.13;5064488;28;20025;-73
2023/04/16 03:19:17;;;;;;;6.40;2.65;;;;;;;9.84;56.48;93353.22;5064449;28;20219;-73
2023/04/16 03:21:43;;;;;;;7.70;3.00;;;;;;;9.79;56.35;93358.72;5064469;28;20327;-73
2023/04/16 03:24:08;;;;;;;12.60;3.03;;;;;;;9.78;56.29;93359.84;5064409;28;20326;-72
2023/04/16 03:26:34;;;;;;;4.90;2.33;;;;;;;9.77;56.00;93356.41;5064311;28;20025;-73
2023/04/16 03:29:01;;;;;;;4.60;2.40;;;;;;;9.68;55.86;93368.94;5064205;28;20116;-72
2023/04/16 03:31:26;;;;;;;5.78;1.98;;;;;;;9.64;56.00;93357.38;5064344;28;20031;-73
2023/04/16 03:33:52;;;;;;;5.88;1.77;;;;;;;9.54;56.05;93361.16;5064036;28;20021;-73
2023/04/16 03:36:17;;;;;;;9.52;2.38;;;;;;;9.42;56.51;93367.16;5064207;28;20032;-73
2023/04/16 03:38:43;;;;;;;5.95;2.60;;;;;;;9.32;56.86;93364.03;5063547;28;20024;-72
2023/04/16 03:41:09;;;;;;;7.00;2.45;;;;;;;9.32;57.14;93366.69;5063941;28;20086;-73
2023/04/16 03:43:34;;;;;;;8.07;2.63;;;;;;;9.27;57.00;93367.66;5063923;28;20050;-73
2023/04/16 03:46:00;;;;;;;12.35;3.15;;;;;;;9.22;57.16;93378.47;5063866;28;20029;-73
2023/04/16 03:48:25;;;;;;;7.70;2.80;;;;;;;9.14;57.09;93369.41;5063747;28;20101;-73
2023/04/16 03:50:50;;;;;;;5.28;2.13;;;;;;;9.09;57.17;93371.44;5063879;28;20059;-73
2023/04/16 03:53:16;;;;;;;11.82;2.70;;;;;;;9.02;57.52;93375.38;5063866;28;20025;-73
2023/04/16 03:55:42;;;;;;;5.85;2.95;;;;;;;8.96;57.96;93370.53;5063721;28;20059;-73
2023/04/16 03:58:07;;;;;;;7.65;2.92;;;;;;;8.92;57.93;93373.03;5063539;28;20243;-73
2023/04/16 04:00:33;;;;;;;5.88;2.70;;;;;;;8.94;57.94;93370.84;5063788;28;20032;-73
2023/04/16 04:02:59;;;;;;;8.10;2.63;;;;;;;8.97;57.56;93380.81;5063706;28;20200;-73
2023/04/16 04:05:24;;;;;;;6.07;2.53;;;;;;;9.03;57.58;93376.91;5062237;28;20092;-72
2023/04/16 04:07:50;;;;;;;5.28;2.58;;;;;;;9.07;57.30;93382.38;5063395;28;20336;-73
2023/04/16 04:10:15;;;;;;;7.30;2.33;;;;;;;9.04;57.25;93378.50;5063600;28;20040;-73
2023/04/16 04:12:41;;;;;;;6.03;2.78;;;;;;;9.11;56.93;93379.88;5063487;28;20017;-73
2023/04/16 04:15:07;;;;;;;8.77;2.50;;;;;;;9.14;56.89;93374.72;5063349;28;20045;-73
2023/04/16 04:17:33;;;;;;;5.18;2.47;;;;;;;9.19;56.78;93392.38;5063233;28;20021;-73
2023/04/16 04:19:58;;;;;;;12.38;2.83;;;;;;;9.21;56.46;93384.88;5063175;28;20111;-72
2023/04/16 04:22:24;;;;;;;6.63;2.90;;;;;;;9.24;56.11;93389.56;5063233;28;20024;-72
2023/04/16 04:24:49;;;;;;;6.43;2.80;;;;;;;9.26;56.32;93395.34;5063051;28;20031;-73
2023/04/16 04:27:15;;;;;;;8.82;3.08;;;;;;;9.30;56.13;93393.63;5063237;28;20040;-73
2023/04/16 04:29:40;;;;;;;4.57;2.20;;;;;;;9.35;56.11;93398.78;5063131;28;20040;-73
2023/04/16 04:32:05;;;;;;;5.53;2.63;;;;;;;9.41;55.55;93399.38;5063036;28;20055;-73
2023/04/16 04:34:31;;;;;;;8.60;2.80;;;;;;;9.44;55.41;93393.44;5063071;28;20028;-73
2023/04/16 04:36:58;;;;;;;5.93;2.80;;;;;;;9.50;55.53;93397.47;5063091;28;20032;-73
2023/04/16 04:39:23;;;;;;;7.45;3.22;;;;;;;9.56;55.88;93411.41;5063040;28;20031;-73
2023/04/16 04:41:49;;;;;;;7.70;2.90;;;;;;;9.64;55.87;93402.59;5062929;28;20084;-73
2023/04/16 04:44:14;;;;;;;8.75;2.83;;;;;;;9.73;56.45;93400.72;5063065;28;20033;-73
2023/04/16 04:46:40;;;;;;;7.90;2.70;;;;;;;9.78;56.03;93405.06;5062958;28;20344;-73
2023/04/16 04:49:05;;;;;;;6.70;2.42;;;;;;;9.83;54.85;93413.69;5062913;28;20085;-73
2023/04/16 04:51:31;;;;;;;8.38;3.13;;;;;;;9.91;54.67;93412.09;5062771;28;20311;-73
2023/04/16 04:53:57;;;;;;;7.15;2.78;;;;;;;9.96;55.21;93411.13;5062714;28;20023;-73
2023/04/16 04:56:22;;;;;;;9.18;3.20;;;;;;;10.03;56.75;93403.41;5062789;28;20048;-72
2023/04/16 04:58:50;;;;;;;7.05;2.88;;;;;;;10.08;55.32;93403.25;5062824;28;20249;-73
2023/04/16 05:01:16;;;;;;;7.38;2.97;;;;;;;10.09;54.25;93415.44;5062924;28;20024;-73
2023/04/16 05:03:42;;;;;;;12.30;3.72;;;;;;;10.14;54.38;93409.16;5062778;28;20018;-73
2023/04/16 05:06:07;;;;;;;5.93;2.95;;;;;;;10.19;54.46;93406.31;5062726;28;20048;-72
2023/04/16 05:08:33;;;;;;;11.80;3.30;;;;;;;10.24;56.38;93408.81;5062636;28;20223;-72
2023/04/16 05:10:59;;;;;;;8.32;3.10;;;;;;;10.28;56.41;93406.25;5062619;28;20027;-72
2023/04/16 05:13:25;;;;;;;9.63;3.63;;;;;;;10.28;54.98;93406.25;5062737;28;20263;-72
2023/04/16 05:15:50;;;;;;;10.07;3.55;;;;;;;10.33;53.75;93409.56;5062573;28;20017;-72
2023/04/16 05:18:15;;;;;;;9.77;3.58;;;;;;;10.36;53.68;93410.78;5062710;28;20387;-72
2023/04/16 05:20:41;;;;;;;10.45;3.08;;;;;;;10.38;53.65;93406.72;5062539;28;20207;-72
2023/04/16 05:23:06;;;;;;;9.23;3.22;;;;;;;10.40;53.54;93412.50;5062569;28;20025;-73
2023/04/16 05:25:32;;;;;;;8.00;3.30;;;;;;;10.41;53.80;93407.97;5062561;28;20017;-73
2023/04/16 05:27:58;;;;;;;13.07;3.28;;;;;;;10.42;53.54;93401.50;5062275;28;20025;-73
2023/04/16 05:30:23;;;;;;;5.97;3.08;;;;;;;10.48;53.96;93402.09;5062494;28;20021;-72
2023/04/16 05:32:49;;;;;;;14.52;2.90;;;;;;;10.56;53.82;93401.28;5062484;28;20047;-72
2023/04/16 05:35:14;;;;;;;9.93;3.40;;;;;;;10.57;53.27;93406.28;5062585;28;20126;-72
2023/04/16 05:37:40;;;;;;;10.90;3.33;;;;;;;10.58;52.83;93399.06;5062461;28;20017;-72
2023/04/16 05:40:06;;;;;;;9.02;3.70;;;;;;;10.61;53.06;93403.75;5062331;28;20274;-72
2023/04/16 05:42:31;;;;;;;9.48;3.72;;;;;;;10.60;53.30;93397.66;5062452;28;20051;-72
2023/04/16 05:44:57;;;;;;;12.70;3.75;;;;;;;10.64;53.22;93403.09;5062407;28;20021;-72
2023/04/16 05:47:23;;;;;;;8.52;3.65;;;;;;;10.64;53.04;93409.22;5062424;28;20025;-72
2023/04/16 05:49:48;;;;;;;7.72;3.67;;;;;;;10.68;52.75;93416.56;5062291;28;20025;-72
2023/04/16 05:52:14;;;;;;;16.55;3.90;;;;;;;10.70;52.78;93406.34;5062301;28;20021;-72
2023/04/16 05:54:39;;;;;;;12.57;3.72;;;;;;;10.75;52.72;93408.84;5062106;28;20024;-72
2023/04/16 05:57:05;;;;;;;8.73;4.18;;;;;;;10.77;52.20;93403.97;5062241;28;20041;-72
2023/04/16 05:59:30;;;;;;;11.80;3.83;;;;;;;10.79;52.11;93407.88;5062126;28;20024;-72
2023/04/16 06:01:56;;;;;;;16.10;4.50;;;;;;;10.82;51.81;93406.44;5062731;28;20040;-72
2023/04/16 06:04:22;;;;;;;13.70;4.35;;;;;;;10.87;51.73;93405.44;5065722;28;20311;-72
2023/04/16 06:06:47;;;;;;;11.75;4.40;;;;;;;10.88;51.66;93405.13;5065719;28;20063;-72
2023/04/16 06:09:12;;;;;;;7.57;4.00;;;;;;;10.91;52.01;93403.69;5065771;28;20092;-72
2023/04/16 06:11:38;;;;;;;9.88;4.38;;;;;;;10.95;51.85;93405.41;5065639;28;20028;-72
2023/04/16 06:14:03;;;;;;;10.38;3.40;;;;;;;11.09;51.32;93396.34;5065642;28;20094;-72
2023/04/16 06:16:29;;;;;;;8.55;3.88;;;;;;;11.17;50.54;93400.81;5065404;28;20035;-72
2023/04/16 06:18:54;;;;;;;12.77;4.18;;;;;;;11.28;51.18;93407.31;5065495;28;20067;-72
2023/04/16 06:21:20;;;;;;;13.07;4.43;;;;;;;11.37;50.96;93402.66;5065465;28;20044;-72
2023/04/16 06:23:45;;;;;;;8.40;3.72;;;;;;;11.40;49.88;93406.59;5065596;28;20319;-72
2023/04/16 06:26:11;;;;;;;11.23;3.80;;;;;;;11.36;49.83;93405.69;5064226;28;20338;-72
2023/04/16 06:28:36;;;;;;;9.70;4.13;;;;;;;11.37;50.33;93402.66;5065261;28;20196;-72
2023/04/16 06:31:02;;;;;;;13.82;3.33;;;;;;;11.39;50.36;93403.13;5065314;28;20052;-72
2023/04/16 06:33:27;;;;;;;6.75;2.75;;;;;;;11.42;49.91;93397.13;5065231;28;20029;-72
2023/04/16 06:35:53;;;;;;;11.90;4.25;;;;;;;11.44;50.01;93386.91;5065274;28;20021;-72
2023/04/16 06:38:18;;;;;;;10.45;3.92;;;;;;;11.52;50.03;93389.81;5064981;28;20028;-72
2023/04/16 06:40:43;;;;;;;8.75;3.83;;;;;;;11.52;50.31;93400.47;5065243;28;20093;-72
2023/04/16 06:43:09;;;;;;;9.13;4.20;;;;;;;11.55;50.42;93397.16;5065214;28;20193;-72
2023/04/16 06:45:35;;;;;;;14.02;4.28;;;;;;;11.62;50.17;93400.88;5065050;28;20028;-72
2023/04/16 06:48:02;;;;;;;11.75;3.72;;;;;;;11.70;49.95;93406.44;5064806;28;20021;-72
2023/04/16 06:50:27;;;;;;;13.68;3.58;;;;;;;11.79;49.73;93399.13;5064835;28;20051;-72
2023/04/16 06:52:55;;;;;;;9.75;3.78;;;;;;;11.87;49.18;93403.59;5064805;28;20029;-72
2023/04/16 06:55:21;;;;;;;11.65;4.03;;;;;;;11.98;48.87;93403.94;5064979;28;20048;-72
2023/04/16 06:57:46;;;;;;;12.70;3.78;;;;;;;12.01;48.66;93397.97;5064664;28;20045;-72
2023/04/16 07:00:12;;;;;;;9.80;4.30;;;;;;;12.06;49.15;93407.63;5064902;28;20021;-72
2023/04/16 07:02:37;;;;;;;16.30;4.57;;;;;;;12.17;49.48;93398.84;5064576;28;20028;-72
2023/04/16 07:05:03;;;;;;;10.18;4.50;;;;;;;12.33;49.41;93400.84;5064593;28;20024;-72
2023/04/16 07:07:29;;;;;;;10.88;3.70;;;;;;;12.47;48.14;93401.28;5064685;28;20029;-72
2023/04/16 07:09:55;;;;;;;7.18;3.13;;;;;;;12.55;47.62;93408.41;5064545;28;20021;-72
2023/04/16 07:12:20;;;;;;;11.70;4.47;;;;;;;12.57;47.09;93414.19;5064367;28;20287;-72
2023/04/16 07:14:46;;;;;;;8.93;3.75;;;;;;;12.58;47.12;93409.66;5063506;28;20021;-72
2023/04/16 07:17:11;;;;;;;7.28;3.90;;;;;;;12.49;47.10;93407.06;5064676;28;20219;-72
2023/04/16 07:19:37;;;;;;;8.00;3.05;;;;;;;12.50;47.84;93405.97;5064525;28;20258;-73
2023/04/16 07:22:02;;;;;;;13.90;4.03;;;;;;;12.52;47.42;93403.75;5064166;28;20323;-72
2023/04/16 07:24:28;;;;;;;9.18;3.42;;;;;;;12.46;47.73;93410.44;5064188;28;20040;-72
2023/04/16 07:26:54;;;;;;;10.52;3.97;;;;;;;12.49;47.65;93400.94;5064271;28;20062;-72
2023/04/16 07:29:19;;;;;;;11.93;5.30;;;;;;;12.50;47.75;93408.63;5064062;28;20323;-72
2023/04/16 07:31:45;;;;;;;10.38;4.07;;;;;;;12.51;48.59;93407.50;5064242;28;20192;-72
2023/04/16 07:34:10;;;;;;;9.10;3.58;;;;;;;12.62;47.34;93394.50;5064086;28;20189;-72
2023/04/16 07:36:36;;;;;;;9.38;3.67;;;;;;;12.67;47.99;93398.81;5063866;28;20056;-72
2023/04/16 07:39:01;;;;;;;12.50;4.13;;;;;;;12.77;48.44;93399.13;5064100;28;20020;-72
2023/04/16 07:41:28;;;;;;;12.35;3.90;;;;;;;12.94;47.55;93391.94;5063934;28;20029;-72
2023/04/16 07:43:54;;;;;;;12.77;4.45;;;;;;;13.07;46.81;93403.38;5063883;28;20024;-72
2023/04/16 07:46:19;;;;;;;12.90;4.78;;;;;;;13.09;46.92;93404.63;5063868;28;20260;-72
2023/04/16 07:48:45;;;;;;;10.90;4.75;;;;;;;13.02;47.13;93399.06;5063535;28;20303;-72
2023/04/16 07:51:10;;;;;;;17.63;4.90;;;;;;;13.02;47.23;93402.50;5063577;28;20335;-72
2023/04/16 07:53:36;;;;;;;15.02;5.07;;;;;;;13.15;47.03;93405.19;5063639;28;20122;-72
2023/04/16 07:56:01;;;;;;;11.60;4.63;;;;;;;13.31;46.90;93395.31;5063654;28;20023;-72
2023/04/16 07:58:27;;;;;;;9.90;4.07;;;;;;;13.41;46.78;93402.88;5063285;28;20108;-72
2023/04/16 08:00:52;;;;;;;9.50;3.70;;;;;;;13.60;46.65;93396.84;5063626;28;20044;-72
2023/04/16 08:03:18;;;;;;;9.00;4.05;;;;;;;13.73;45.96;93397.56;5063558;28;20020;-72
2023/04/16 08:05:43;;;;;;;8.25;3.92;;;;;;;13.92;46.34;93401.47;5063556;28;20066;-72
2023/04/16 08:08:09;;;;;;;17.75;4.85;;;;;;;14.15;45.91;93396.31;5063452;28;20017;-72
2023/04/16 08:10:34;;;;;;;8.65;4.07;;;;;;;14.36;45.31;93396.03;5063378;28;20307;-72
2023/04/16 08:13:00;;;;;;;7.10;3.97;;;;;;;14.40;44.58;93383.47;5063344;28;20086;-72
2023/04/16 08:15:26;;;;;;;9.48;3.92;;;;;;;14.55;44.14;93392.63;5063450;28;20027;-72
2023/04/16 08:17:52;;;;;;;8.40;3.15;;;;;;;14.73;44.06;93391.13;5063253;28;20024;-72
2023/04/16 08:20:17;;;;;;;7.15;3.50;;;;;;;14.89;44.26;93391.09;5063230;28;20017;-72
2023/04/16 08:22:44;;;;;;;11.18;4.13;;;;;;;15.09;43.88;93397.25;5063163;28;20025;-72
2023/04/16 08:25:10;;;;;;;15.02;4.32;;;;;;;15.11;42.22;93389.63;5062894;28;20326;-72
2023/04/16 08:27:36;;;;;;;8.40;3.53;;;;;;;15.01;42.46;93396.34;5063213;28;20021;-72
2023/04/16 08:30:04;;;;;;;9.52;3.95;;;;;;;14.92;42.46;93387.72;5063121;28;20025;-73
2023/04/16 08:32:30;;;;;;;9.25;4.00;;;;;;;14.97;42.67;93395.47;5063030;28;20017;-72
2023/04/16 08:34:56;;;;;;;11.45;3.42;;;;;;;15.11;42.45;93386.19;5062910;28;20027;-72
2023/04/16 08:37:21;;;;;;;9.93;3.53;;;;;;;15.15;42.50;93374.38;5063064;28;20020;-72
2023/04/16 08:39:47;;;;;;;18.98;3.65;;;;;;;15.27;42.18;93373.47;5063038;28;20331;-72
2023/04/16 08:42:39;;;;;;;12.55;4.18;;;;;;;15.35;41.51;93372.47;5063020;28;20017;-72
2023/04/16 08:45:16;;;;;;;8.18;3.58;;;;;;;15.35;41.33;93372.47;5062928;28;20036;-72
2023/04/16 08:47:49;;;;;;;8.93;3.53;;;;;;;15.43;41.06;93374.16;5062964;28;20025;-72
2023/04/16 08:50:16;;;;;;;8.50;3.28;;;;;;;15.43;41.36;93366.09;5063001;28;20021;-72
2023/04/16 08:52:49;;;;;;;13.27;4.25;;;;;;;15.55;41.54;93370.53;5062910;28;20040;-73
2023/04/16 08:55:16;;;;;;;5.70;2.53;;;;;;;15.78;41.18;93367.91;5062900;28;20134;-72
2023/04/16 08:57:52;;;;;;;6.30;2.90;;;;;;;15.86;40.79;93360.75;5062703;28;20048;-73
2023/04/16 09:00:18;;;;;;;9.43;2.53;;;;;;;15.89;39.72;93357.31;5062837;28;20021;-72
2023/04/16 09:02:44;;;;;;;6.00;2.42;;;;;;;15.99;38.80;93359.41;5062968;28;20045;-72
2023/04/16 09:05:13;;;;;;;6.63;2.03;;;;;;;16.01;39.30;93362.53;5062716;28;20032;-72
2023/04/16 09:07:40;;;;;;;6.88;2.00;;;;;;;16.08;39.18;93364.56;5062633;28;20311;-73
2023/04/16 09:10:07;;;;;;;3.88;1.45;;;;;;;16.24;39.71;93362.53;5062405;28;20062;-72
2023/04/16 09:12:34;;;;;;;9.98;2.47;;;;;;;16.41;38.78;93366.63;5062564;28;20096;-72
2023/04/16 09:15:01;;;;;;;8.00;3.13;;;;;;;16.44;38.22;93365.09;5062574;28;20032;-73
2023/04/16 09:17:27;;;;;;;9.77;2.78;;;;;;;16.51;37.93;93367.91;5062542;28;20082;-73
2023/04/16 09:19:53;;;;;;;11.05;3.15;;;;;;;16.52;37.90;93360.63;5062396;28;20021;-72
2023/04/16 09:22:19;;;;;;;12.55;2.72;;;;;;;16.50;37.96;93358.28;5062449;28;20354;-72
2023/04/16 09:24:44;;;;;;;7.10;2.45;;;;;;;16.29;38.44;93360.66;5062586;28;20025;-72
2023/04/16 09:27:11;;;;;;;10.50;2.30;;;;;;;16.31;38.28;93371.84;5062480;28;20021;-72
2023/04/16 09:29:39;;;;;;;5.78;1.98;;;;;;;16.34;37.96;93361.13;5062333;28;20036;-73
2023/04/16 09:32:09;;;;;;;5.90;2.03;;;;;;;16.40;37.47;93359.66;5062338;28;20025;-72
2023/04/16 09:34:50;;;;;;;7.00;2.13;;;;;;;16.44;37.10;93365.09;5062454;28;20020;-72
2023/04/16 09:37:18;;;;;;;7.72;3.20;;;;;;;16.42;36.21;93354.75;5062546;28;20028;-72
2023/04/16 09:39:53;;;;;;;4.05;1.65;;;;;;;16.42;36.67;93362.00;5066236;28;20261;-72
2023/04/16 09:42:27;;;;;;;12.20;2.03;;;;;;;16.43;36.44;93358.19;5066265;28;20028;-72
2023/04/16 09:44:54;;;;;;;5.13;2.10;;;;;;;16.49;36.76;93351.38;5066118;28;20212;-72
2023/04/16 09:47:20;;;;;;;7.32;2.03;;;;;;;16.50;36.65;93352.91;5066057;28;20021;-72
2023/04/16 09:49:46;;;;;;;6.03;2.00;;;;;;;16.54;36.98;93348.34;5065737;28;20024;-72
2023/04/16 09:52:21;;;;;;;4.32;1.52;;;;;;;16.53;37.16;93352.19;5066147;28;20104;-73
2023/04/16 09:54:53;;;;;;;9.45;1.85;;;;;;;16.50;37.26;93349.44;5065862;28;20021;-72
2023/04/16 09:57:23;;;;;;;10.75;1.70;;;;;;;16.55;37.61;93346.47;5065784;28;20078;-72
2023/04/16 09:59:53;;;;;;;6.43;1.95;;;;;;;16.67;37.23;93335.47;5065762;28;20024;-72
2023/04/16 10:02:19;;;;;;;4.93;2.00;;;;;;;16.83;37.93;93340.69;5065721;28;20096;-73
2023/04/16 10:04:48;;;;;;;8.02;2.17;;;;;;;17.00;36.64;93340.16;5065771;28;20278;-73
2023/04/16 10:07:13;;;;;;;5.20;1.95;;;;;;;17.06;36.60;93335.22;5065893;28;20028;-73
2023/04/16 10:09:40;;;;;;;6.63;2.22;;;;;;;16.98;36.54;93328.22;5065365;28;20036;-74
2023/04/16 10:12:06;;;;;;;4.43;1.77;;;;;;;16.77;37.01;93331.34;5065706;28;20031;-73
2023/04/16 10:14:32;;;;;;;7.75;2.28;;;;;;;16.81;36.84;93333.00;5065596;28;20021;-73
2023/04/16 10:16:58;;;;;;;8.68;2.13;;;;;;;16.76;36.94;93325.22;5065465;28;20048;-73
2023/04/16 10:19:25;;;;;;;14.55;2.75;;;;;;;16.80;37.37;93317.94;5065572;28;20024;-73
2023/04/16 10:21:51;;;;;;;5.07;1.77;;;;;;;16.96;37.76;93312.41;5065364;28;20263;-73
2023/04/16 10:24:17;;;;;;;6.57;2.15;;;;;;;17.14;36.03;93319.94;5065709;28;20036;-73
2023/04/16 10:26:43;;;;;;;6.25;2.05;;;;;;;17.09;36.23;93318.31;5065629;28;20147;-73
2023/04/16 10:29:11;;;;;;;6.68;2.20;;;;;;;17.01;36.16;93306.69;5065317;28;20196;-73
2023/04/16 10:31:38;;;;;;;4.85;1.85;;;;;;;16.94;36.25;93306.63;5065180;28;20044;-72
2023/04/16 10:34:05;;;;;;;10.35;2.38;;;;;;;16.97;36.67;93307.81;5065178;28;20090;-73
2023/04/16 10:36:35;;;;;;;5.88;2.25;;;;;;;17.05;36.78;93302.13;5065332;28;20078;-73
2023/04/16 10:39:01;;;;;;;11.52;2.05;;;;;;;17.09;36.88;93304.09;5065259;28;20207;-73
2023/04/16 10:41:27;;;;;;;7.90;2.22;;;;;;;17.12;36.77;93303.38;5064999;28;20087;-73
2023/04/16 10:44:04;;;;;;;4.82;1.70;;;;;;;17.20;35.88;93303.09;5065072;28;20088;-73
2023/04/16 10:46:37;;;;;;;6.60;2.30;;;;;;;17.17;35.90;93298.41;5065054;28;20028;-73
2023/04/16 10:49:18;;;;;;;7.03;2.20;;;;;;;17.10;36.05;93302.97;5064615;28;20315;-73
2023/04/16 10:52:10;;;;;;;6.22;2.20;;;;;;;17.31;37.55;93297.81;5063918;28;20041;-73
2023/04/16 10:54:35;;;;;;;7.38;1.83;;;;;;;17.62;35.93;93301.19;5062002;28;20044;-73
2023/04/16 10:57:19;;;;;;;7.63;2.40;;;;;;;17.66;34.68;93293.91;5064795;28;20056;-73
2023/04/16 10:59:45;;;;;;;9.98;1.95;;;;;;;17.63;35.17;93303.50;5065095;28;20092;-73
2023/04/16 11:02:16;;;;;;;4.65;2.20;;;;;;;17.58;34.51;93300.38;5064687;28;20021;-73
2023/04/16 11:04:44;;;;;;;6.35;1.95;;;;;;;17.65;34.88;93293.13;5064681;28;20028;-73
2023/04/16 11:07:15;;;;;;;9.32;2.28;;;;;;;17.75;34.56;93294.38;5064472;28;20032;-73
2023/04/16 11:10:04;;;;;;;12.65;2.08;;;;;;;17.82;35.12;93291.72;5064281;28;20104;-73
2023/04/16 11:12:45;;;;;;;11.15;2.45;;;;;;;17.87;33.97;93290.66;5061052;28;20386;-72
2023/04/16 11:15:15;;;;;;;7.18;2.03;;;;;;;17.89;34.31;93284.88;5064319;28;20227;-73
2023/04/16 11:17:50;;;;;;;6.70;2.28;;;;;;;17.83;34.41;93284.47;5064009;28;20049;-73
2023/04/16 11:20:19;;;;;;;4.72;1.70;;;;;;;17.92;34.42;93278.75;5064617;28;20191;-73
2023/04/16 11:22:45;;;;;;;5.85;2.08;;;;;;;18.02;34.22;93276.13;5064552;28;20084;-73
2023/04/16 11:25:11;;;;;;;6.72;1.95;;;;;;;18.09;33.92;93267.31;5064340;28;20021;-73
2023/04/16 11:27:36;;;;;;;4.90;1.85;;;;;;;18.09;34.30;93267.31;5064045;28;20327;-73
2023/04/16 11:30:04;;;;;;;6.85;2.42;;;;;;;18.25;34.50;93273.22;5064069;28;20284;-73
2023/04/16 11:32:32;;;;;;;6.80;2.78;;;;;;;18.27;33.89;93267.44;5064115;28;20032;-73